sensor_id;sensor_type;location;lat;lon;timestamp;P1;durP1;ratioP1;P2;durP2;ratioP2
13185;SDS011;6658;53.080;7.428;2022-08-18T00:01:14;5.97;;;4.60;;
13185;SDS011;6658;53.080;7.428;2022-08-18T00:03:41;7.83;;;4.53;;
13185;SDS011;6658;53.080;7.428;2022-08-18T00:06:08;8.37;;;4.97;;
13185;SDS011;6658;53.080;7.428;2022-08-18T00:08:34;7.93;;;4.33;;
13185;SDS011;6658;53.080;7.428;2022-08-18T00:10:59;8.30;;;4.57;;
13185;SDS011;6658;53.080;7.428;2022-08-18T00:13:25;7.17;;;4.43;;
13185;SDS011;6658;53.080;7.428;2022-08-18T00:15:51;10.03;;;4.73;;
13185;SDS011;6658;53.080;7.428;2022-08-18T00:18:17;6.87;;;4.83;;
13185;SDS011;6658;53.080;7.428;2022-08-18T00:20:43;8.93;;;4.33;;
13185;SDS011;6658;53.080;7.428;2022-08-18T00:23:09;7.77;;;4.63;;
13185;SDS011;6658;53.080;7.428;2022-08-18T00:25:34;6.97;;;4.10;;
13185;SDS011;6658;53.080;7.428;2022-08-18T00:28:01;9.57;;;4.80;;
13185;SDS011;6658;53.080;7.428;2022-08-18T00:30:26;8.90;;;4.27;;
13185;SDS011;6658;53.080;7.428;2022-08-18T00:32:53;8.53;;;5.17;;
13185;SDS011;6658;53.080;7.428;2022-08-18T00:35:22;9.80;;;4.67;;
13185;SDS011;6658;53.080;7.428;2022-08-18T00:37:50;7.67;;;4.23;;
13185;SDS011;6658;53.080;7.428;2022-08-18T00:40:19;9.83;;;4.70;;
13185;SDS011;6658;53.080;7.428;2022-08-18T00:42:53;7.83;;;3.80;;
13185;SDS011;6658;53.080;7.428;2022-08-18T00:45:24;5.83;;;3.63;;
13185;SDS011;6658;53.080;7.428;2022-08-18T00:47:51;6.50;;;3.60;;
13185;SDS011;6658;53.080;7.428;2022-08-18T00:50:22;8.23;;;4.23;;
13185;SDS011;6658;53.080;7.428;2022-08-18T00:53:02;6.77;;;3.87;;
13185;SDS011;6658;53.080;7.428;2022-08-18T00:55:33;8.47;;;3.97;;
13185;SDS011;6658;53.080;7.428;2022-08-18T00:58:07;9.37;;;4.43;;
13185;SDS011;6658;53.080;7.428;2022-08-18T01:00:40;7.37;;;4.20;;
13185;SDS011;6658;53.080;7.428;2022-08-18T01:03:09;8.47;;;4.37;;
13185;SDS011;6658;53.080;7.428;2022-08-18T01:05:47;7.57;;;3.93;;
13185;SDS011;6658;53.080;7.428;2022-08-18T01:08:27;7.47;;;3.97;;
13185;SDS011;6658;53.080;7.428;2022-08-18T01:10:53;6.97;;;3.60;;
13185;SDS011;6658;53.080;7.428;2022-08-18T01:13:20;5.77;;;3.67;;
13185;SDS011;6658;53.080;7.428;2022-08-18T01:15:49;9.70;;;3.97;;
13185;SDS011;6658;53.080;7.428;2022-08-18T01:18:15;7.63;;;3.97;;
13185;SDS011;6658;53.080;7.428;2022-08-18T01:21:04;5.87;;;3.77;;
13185;SDS011;6658;53.080;7.428;2022-08-18T01:23:56;8.77;;;4.03;;
13185;SDS011;6658;53.080;7.428;2022-08-18T01:26:23;6.53;;;4.33;;
13185;SDS011;6658;53.080;7.428;2022-08-18T01:28:51;5.13;;;4.17;;
13185;SDS011;6658;53.080;7.428;2022-08-18T01:31:28;6.27;;;4.27;;
13185;SDS011;6658;53.080;7.428;2022-08-18T01:34:03;5.63;;;4.00;;
13185;SDS011;6658;53.080;7.428;2022-08-18T01:36:30;8.57;;;4.03;;
13185;SDS011;6658;53.080;7.428;2022-08-18T01:39:02;8.90;;;4.47;;
13185;SDS011;6658;53.080;7.428;2022-08-18T01:41:30;5.13;;;4.13;;
13185;SDS011;6658;53.080;7.428;2022-08-18T01:43:59;10.73;;;4.97;;
13185;SDS011;6658;53.080;7.428;2022-08-18T01:46:27;11.43;;;5.17;;
13185;SDS011;6658;53.080;7.428;2022-08-18T01:48:55;8.27;;;5.00;;
13185;SDS011;6658;53.080;7.428;2022-08-18T01:51:24;9.73;;;5.17;;
13185;SDS011;6658;53.080;7.428;2022-08-18T01:53:50;12.40;;;5.90;;
13185;SDS011;6658;53.080;7.428;2022-08-18T01:56:16;7.50;;;4.97;;
13185;SDS011;6658;53.080;7.428;2022-08-18T01:58:42;5.03;;;4.53;;
13185;SDS011;6658;53.080;7.428;2022-08-18T02:01:10;7.77;;;5.90;;
13185;SDS011;6658;53.080;7.428;2022-08-18T02:03:38;10.10;;;5.90;;
13185;SDS011;6658;53.080;7.428;2022-08-18T02:06:10;9.97;;;5.30;;
13185;SDS011;6658;53.080;7.428;2022-08-18T02:08:37;7.23;;;5.63;;
13185;SDS011;6658;53.080;7.428;2022-08-18T02:11:03;7.20;;;5.90;;
13185;SDS011;6658;53.080;7.428;2022-08-18T02:13:30;7.97;;;5.70;;
13185;SDS011;6658;53.080;7.428;2022-08-18T02:15:56;12.63;;;6.50;;
13185;SDS011;6658;53.080;7.428;2022-08-18T02:18:23;11.63;;;6.07;;
13185;SDS011;6658;53.080;7.428;2022-08-18T02:20:51;9.03;;;5.80;;
13185;SDS011;6658;53.080;7.428;2022-08-18T02:23:18;7.57;;;5.63;;
13185;SDS011;6658;53.080;7.428;2022-08-18T02:25:44;8.77;;;5.97;;
13185;SDS011;6658;53.080;7.428;2022-08-18T02:28:09;11.50;;;6.33;;
13185;SDS011;6658;53.080;7.428;2022-08-18T02:30:35;8.20;;;4.77;;
13185;SDS011;6658;53.080;7.428;2022-08-18T02:33:07;6.70;;;5.77;;
13185;SDS011;6658;53.080;7.428;2022-08-18T02:35:36;6.90;;;5.73;;
13185;SDS011;6658;53.080;7.428;2022-08-18T02:38:04;9.07;;;6.80;;
13185;SDS011;6658;53.080;7.428;2022-08-18T02:40:32;9.80;;;6.17;;
13185;SDS011;6658;53.080;7.428;2022-08-18T02:42:59;12.10;;;6.40;;
13185;SDS011;6658;53.080;7.428;2022-08-18T02:45:30;12.17;;;6.40;;
13185;SDS011;6658;53.080;7.428;2022-08-18T02:47:56;14.30;;;7.20;;
13185;SDS011;6658;53.080;7.428;2022-08-18T02:50:22;9.00;;;6.67;;
13185;SDS011;6658;53.080;7.428;2022-08-18T02:52:49;10.57;;;7.00;;
13185;SDS011;6658;53.080;7.428;2022-08-18T02:55:14;9.47;;;6.43;;
13185;SDS011;6658;53.080;7.428;2022-08-18T02:57:41;7.07;;;6.27;;
13185;SDS011;6658;53.080;7.428;2022-08-18T03:00:09;7.83;;;7.03;;
13185;SDS011;6658;53.080;7.428;2022-08-18T03:02:37;8.33;;;6.97;;
13185;SDS011;6658;53.080;7.428;2022-08-18T03:05:04;10.70;;;6.90;;
13185;SDS011;6658;53.080;7.428;2022-08-18T03:07:31;7.63;;;6.03;;
13185;SDS011;6658;53.080;7.428;2022-08-18T03:09:57;7.80;;;7.00;;
13185;SDS011;6658;53.080;7.428;2022-08-18T03:12:22;11.60;;;7.00;;
13185;SDS011;6658;53.080;7.428;2022-08-18T03:14:49;12.50;;;7.43;;
13185;SDS011;6658;53.080;7.428;2022-08-18T03:17:14;11.63;;;6.97;;
13185;SDS011;6658;53.080;7.428;2022-08-18T03:19:40;13.57;;;6.80;;
13185;SDS011;6658;53.080;7.428;2022-08-18T03:22:08;7.80;;;6.80;;
13185;SDS011;6658;53.080;7.428;2022-08-18T03:24:34;8.80;;;6.53;;
13185;SDS011;6658;53.080;7.428;2022-08-18T03:27:03;8.33;;;6.90;;
13185;SDS011;6658;53.080;7.428;2022-08-18T03:29:30;14.60;;;7.40;;
13185;SDS011;6658;53.080;7.428;2022-08-18T03:31:56;10.27;;;6.67;;
13185;SDS011;6658;53.080;7.428;2022-08-18T03:34:22;11.23;;;6.70;;
13185;SDS011;6658;53.080;7.428;2022-08-18T03:36:48;9.50;;;7.17;;
13185;SDS011;6658;53.080;7.428;2022-08-18T03:39:15;11.07;;;6.93;;
13185;SDS011;6658;53.080;7.428;2022-08-18T03:41:43;8.37;;;7.43;;
13185;SDS011;6658;53.080;7.428;2022-08-18T03:44:10;8.40;;;7.60;;
13185;SDS011;6658;53.080;7.428;2022-08-18T03:46:38;12.00;;;7.77;;
13185;SDS011;6658;53.080;7.428;2022-08-18T03:49:05;8.43;;;7.47;;
13185;SDS011;6658;53.080;7.428;2022-08-18T03:51:35;9.53;;;8.53;;
13185;SDS011;6658;53.080;7.428;2022-08-18T03:54:02;11.30;;;7.60;;
13185;SDS011;6658;53.080;7.428;2022-08-18T03:56:30;10.03;;;8.70;;
13185;SDS011;6658;53.080;7.428;2022-08-18T03:58:59;9.47;;;8.30;;
13185;SDS011;6658;53.080;7.428;2022-08-18T04:01:27;9.77;;;8.50;;
13185;SDS011;6658;53.080;7.428;2022-08-18T04:04:01;13.70;;;7.80;;
13185;SDS011;6658;53.080;7.428;2022-08-18T04:06:29;13.47;;;8.67;;
13185;SDS011;6658;53.080;7.428;2022-08-18T04:08:58;11.70;;;8.27;;
13185;SDS011;6658;53.080;7.428;2022-08-18T04:11:25;12.97;;;8.40;;
13185;SDS011;6658;53.080;7.428;2022-08-18T04:13:52;11.07;;;8.43;;
13185;SDS011;6658;53.080;7.428;2022-08-18T04:16:22;12.93;;;8.70;;
13185;SDS011;6658;53.080;7.428;2022-08-18T04:18:49;13.13;;;8.13;;
13185;SDS011;6658;53.080;7.428;2022-08-18T04:21:14;9.00;;;7.87;;
13185;SDS011;6658;53.080;7.428;2022-08-18T04:23:40;13.83;;;8.77;;
13185;SDS011;6658;53.080;7.428;2022-08-18T04:26:07;11.50;;;7.47;;
13185;SDS011;6658;53.080;7.428;2022-08-18T04:28:35;13.60;;;8.63;;
13185;SDS011;6658;53.080;7.428;2022-08-18T04:31:08;13.33;;;8.43;;
13185;SDS011;6658;53.080;7.428;2022-08-18T04:33:36;13.37;;;8.30;;
13185;SDS011;6658;53.080;7.428;2022-08-18T04:36:09;12.63;;;9.00;;
13185;SDS011;6658;53.080;7.428;2022-08-18T04:38:37;13.23;;;8.67;;
13185;SDS011;6658;53.080;7.428;2022-08-18T04:41:04;13.13;;;9.10;;
13185;SDS011;6658;53.080;7.428;2022-08-18T04:43:30;17.13;;;10.30;;
13185;SDS011;6658;53.080;7.428;2022-08-18T04:45:57;11.23;;;10.07;;
13185;SDS011;6658;53.080;7.428;2022-08-18T04:48:29;12.53;;;8.83;;
13185;SDS011;6658;53.080;7.428;2022-08-18T04:51:17;14.77;;;9.03;;
13185;SDS011;6658;53.080;7.428;2022-08-18T04:53:44;13.27;;;9.30;;
13185;SDS011;6658;53.080;7.428;2022-08-18T05:01:26;12.70;;;9.43;;
13185;SDS011;6658;53.080;7.428;2022-08-18T05:03:54;11.73;;;9.80;;
13185;SDS011;6658;53.080;7.428;2022-08-18T05:06:22;15.60;;;8.97;;
13185;SDS011;6658;53.080;7.428;2022-08-18T05:08:50;14.03;;;10.27;;
13185;SDS011;6658;53.080;7.428;2022-08-18T05:11:17;12.63;;;9.97;;
13185;SDS011;6658;53.080;7.428;2022-08-18T05:13:43;16.67;;;9.87;;
13185;SDS011;6658;53.080;7.428;2022-08-18T05:16:08;15.23;;;9.77;;
13185;SDS011;6658;53.080;7.428;2022-08-18T05:18:35;12.37;;;8.97;;
13185;SDS011;6658;53.080;7.428;2022-08-18T05:21:05;15.70;;;10.23;;
13185;SDS011;6658;53.080;7.428;2022-08-18T05:23:35;14.73;;;11.27;;
13185;SDS011;6658;53.080;7.428;2022-08-18T05:26:01;14.77;;;11.00;;
13185;SDS011;6658;53.080;7.428;2022-08-18T05:28:28;17.77;;;11.30;;
13185;SDS011;6658;53.080;7.428;2022-08-18T05:30:55;15.47;;;10.57;;
13185;SDS011;6658;53.080;7.428;2022-08-18T05:33:21;14.63;;;11.10;;
13185;SDS011;6658;53.080;7.428;2022-08-18T05:35:49;13.80;;;11.97;;
13185;SDS011;6658;53.080;7.428;2022-08-18T05:38:37;13.47;;;10.33;;
13185;SDS011;6658;53.080;7.428;2022-08-18T05:41:12;12.33;;;11.03;;
13185;SDS011;6658;53.080;7.428;2022-08-18T05:43:43;11.63;;;10.43;;
13185;SDS011;6658;53.080;7.428;2022-08-18T05:46:10;16.07;;;10.27;;
13185;SDS011;6658;53.080;7.428;2022-08-18T05:48:36;15.03;;;11.63;;
13185;SDS011;6658;53.080;7.428;2022-08-18T05:51:07;11.47;;;9.97;;
13185;SDS011;6658;53.080;7.428;2022-08-18T05:53:37;11.63;;;10.43;;
13185;SDS011;6658;53.080;7.428;2022-08-18T05:56:23;11.87;;;10.57;;
13185;SDS011;6658;53.080;7.428;2022-08-18T05:59:13;14.90;;;10.30;;
13185;SDS011;6658;53.080;7.428;2022-08-18T06:01:47;12.87;;;8.70;;
13185;SDS011;6658;53.080;7.428;2022-08-18T06:04:32;11.20;;;8.37;;
13185;SDS011;6658;53.080;7.428;2022-08-18T06:07:14;9.93;;;8.40;;
13185;SDS011;6658;53.080;7.428;2022-08-18T06:09:50;10.07;;;7.93;;
13185;SDS011;6658;53.080;7.428;2022-08-18T06:12:20;10.03;;;7.83;;
13185;SDS011;6658;53.080;7.428;2022-08-18T06:14:54;8.43;;;7.23;;
13185;SDS011;6658;53.080;7.428;2022-08-18T06:17:55;12.10;;;8.10;;
13185;SDS011;6658;53.080;7.428;2022-08-18T06:23:24;7.97;;;7.03;;
13185;SDS011;6658;53.080;7.428;2022-08-18T06:32:12;9.70;;;6.40;;
13185;SDS011;6658;53.080;7.428;2022-08-18T06:37:46;8.23;;;5.83;;
13185;SDS011;6658;53.080;7.428;2022-08-18T06:40:45;9.00;;;6.47;;
13185;SDS011;6658;53.080;7.428;2022-08-18T06:43:24;6.90;;;6.20;;
13185;SDS011;6658;53.080;7.428;2022-08-18T06:45:52;10.03;;;6.03;;
13185;SDS011;6658;53.080;7.428;2022-08-18T06:51:01;8.60;;;5.80;;
13185;SDS011;6658;53.080;7.428;2022-08-18T06:53:50;5.73;;;4.80;;
13185;SDS011;6658;53.080;7.428;2022-08-18T06:56:21;5.07;;;4.67;;
13185;SDS011;6658;53.080;7.428;2022-08-18T06:58:49;8.10;;;5.13;;
13185;SDS011;6658;53.080;7.428;2022-08-18T07:01:19;6.60;;;5.57;;
13185;SDS011;6658;53.080;7.428;2022-08-18T07:03:54;8.67;;;5.13;;
13185;SDS011;6658;53.080;7.428;2022-08-18T07:08:46;6.20;;;4.97;;
13185;SDS011;6658;53.080;7.428;2022-08-18T07:13:43;7.00;;;4.13;;
13185;SDS011;6658;53.080;7.428;2022-08-18T07:16:23;6.20;;;4.47;;
13185;SDS011;6658;53.080;7.428;2022-08-18T07:18:53;7.63;;;4.80;;
13185;SDS011;6658;53.080;7.428;2022-08-18T07:21:27;9.23;;;5.70;;
13185;SDS011;6658;53.080;7.428;2022-08-18T07:24:01;6.33;;;4.83;;
13185;SDS011;6658;53.080;7.428;2022-08-18T07:26:55;8.00;;;4.50;;
13185;SDS011;6658;53.080;7.428;2022-08-18T07:29:24;7.60;;;5.00;;
13185;SDS011;6658;53.080;7.428;2022-08-18T07:31:51;10.17;;;5.17;;
13185;SDS011;6658;53.080;7.428;2022-08-18T07:34:23;8.17;;;4.87;;
13185;SDS011;6658;53.080;7.428;2022-08-18T07:39:53;8.63;;;4.87;;
13185;SDS011;6658;53.080;7.428;2022-08-18T07:42:34;9.20;;;4.47;;
13185;SDS011;6658;53.080;7.428;2022-08-18T07:53:57;8.50;;;4.13;;
13185;SDS011;6658;53.080;7.428;2022-08-18T08:13:02;6.03;;;3.63;;
13185;SDS011;6658;53.080;7.428;2022-08-18T08:16:15;5.13;;;3.40;;
13185;SDS011;6658;53.080;7.428;2022-08-18T08:18:45;8.07;;;3.87;;
13185;SDS011;6658;53.080;7.428;2022-08-18T08:21:15;5.23;;;3.17;;
13185;SDS011;6658;53.080;7.428;2022-08-18T08:23:48;6.57;;;3.00;;
13185;SDS011;6658;53.080;7.428;2022-08-18T08:31:32;6.33;;;2.70;;
13185;SDS011;6658;53.080;7.428;2022-08-18T08:34:29;4.40;;;2.37;;
13185;SDS011;6658;53.080;7.428;2022-08-18T08:37:06;3.63;;;2.73;;
13185;SDS011;6658;53.080;7.428;2022-08-18T08:39:47;5.23;;;3.10;;
13185;SDS011;6658;53.080;7.428;2022-08-18T08:42:39;4.37;;;2.47;;
13185;SDS011;6658;53.080;7.428;2022-08-18T08:45:12;3.73;;;2.60;;
13185;SDS011;6658;53.080;7.428;2022-08-18T08:50:29;3.97;;;2.50;;
13185;SDS011;6658;53.080;7.428;2022-08-18T08:53:19;6.90;;;3.10;;
13185;SDS011;6658;53.080;7.428;2022-08-18T08:55:55;4.53;;;2.33;;
13185;SDS011;6658;53.080;7.428;2022-08-18T08:58:33;4.23;;;2.23;;
13185;SDS011;6658;53.080;7.428;2022-08-18T09:01:08;5.07;;;2.33;;
13185;SDS011;6658;53.080;7.428;2022-08-18T09:03:58;4.20;;;2.67;;
13185;SDS011;6658;53.080;7.428;2022-08-18T09:12:10;5.07;;;3.13;;
13185;SDS011;6658;53.080;7.428;2022-08-18T09:15:00;5.73;;;2.80;;
13185;SDS011;6658;53.080;7.428;2022-08-18T09:18:14;7.37;;;3.30;;
13185;SDS011;6658;53.080;7.428;2022-08-18T09:23:19;4.67;;;3.00;;
13185;SDS011;6658;53.080;7.428;2022-08-18T09:25:58;4.17;;;2.70;;
13185;SDS011;6658;53.080;7.428;2022-08-18T09:28:57;4.47;;;2.60;;
13185;SDS011;6658;53.080;7.428;2022-08-18T09:31:29;4.10;;;2.63;;
13185;SDS011;6658;53.080;7.428;2022-08-18T09:39:44;2.97;;;2.47;;
13185;SDS011;6658;53.080;7.428;2022-08-18T09:42:58;4.67;;;3.00;;
13185;SDS011;6658;53.080;7.428;2022-08-18T09:45:59;2.70;;;2.10;;
13185;SDS011;6658;53.080;7.428;2022-08-18T09:48:36;4.90;;;2.63;;
13185;SDS011;6658;53.080;7.428;2022-08-18T09:53:51;2.20;;;1.73;;
13185;SDS011;6658;53.080;7.428;2022-08-18T09:57:06;3.70;;;2.00;;
13185;SDS011;6658;53.080;7.428;2022-08-18T10:10:23;4.00;;;2.37;;
13185;SDS011;6658;53.080;7.428;2022-08-18T10:23:48;1.63;;;1.50;;
13185;SDS011;6658;53.080;7.428;2022-08-18T10:31:27;4.07;;;1.90;;
13185;SDS011;6658;53.080;7.428;2022-08-18T10:36:55;1.80;;;1.43;;
13185;SDS011;6658;53.080;7.428;2022-08-18T10:42:10;1.73;;;1.60;;
13185;SDS011;6658;53.080;7.428;2022-08-18T10:44:54;2.33;;;1.80;;
13185;SDS011;6658;53.080;7.428;2022-08-18T10:47:34;2.60;;;1.30;;
13185;SDS011;6658;53.080;7.428;2022-08-18T10:50:03;1.73;;;1.43;;
13185;SDS011;6658;53.080;7.428;2022-08-18T10:55:27;2.07;;;1.70;;
13185;SDS011;6658;53.080;7.428;2022-08-18T11:01:27;2.03;;;1.50;;
13185;SDS011;6658;53.080;7.428;2022-08-18T11:04:01;2.57;;;1.60;;
13185;SDS011;6658;53.080;7.428;2022-08-18T11:06:41;2.77;;;1.57;;
13185;SDS011;6658;53.080;7.428;2022-08-18T11:09:12;3.03;;;1.83;;
13185;SDS011;6658;53.080;7.428;2022-08-18T11:11:46;1.70;;;1.60;;
13185;SDS011;6658;53.080;7.428;2022-08-18T11:20:05;3.43;;;1.80;;
13185;SDS011;6658;53.080;7.428;2022-08-18T11:22:35;2.40;;;1.73;;
13185;SDS011;6658;53.080;7.428;2022-08-18T11:25:02;1.97;;;1.40;;
13185;SDS011;6658;53.080;7.428;2022-08-18T11:27:44;2.97;;;1.93;;
13185;SDS011;6658;53.080;7.428;2022-08-18T11:30:11;2.07;;;1.80;;
13185;SDS011;6658;53.080;7.428;2022-08-18T11:32:37;4.30;;;2.00;;
13185;SDS011;6658;53.080;7.428;2022-08-18T11:37:48;3.50;;;2.07;;
13185;SDS011;6658;53.080;7.428;2022-08-18T11:48:18;3.03;;;1.73;;
13185;SDS011;6658;53.080;7.428;2022-08-18T11:50:45;3.63;;;1.93;;
13185;SDS011;6658;53.080;7.428;2022-08-18T11:58:41;4.03;;;1.90;;
13185;SDS011;6658;53.080;7.428;2022-08-18T12:01:29;3.77;;;1.77;;
13185;SDS011;6658;53.080;7.428;2022-08-18T12:11:55;1.67;;;1.30;;
13185;SDS011;6658;53.080;7.428;2022-08-18T12:14:26;2.10;;;1.50;;
13185;SDS011;6658;53.080;7.428;2022-08-18T12:16:55;2.20;;;1.63;;
13185;SDS011;6658;53.080;7.428;2022-08-18T12:19:21;2.27;;;1.43;;
13185;SDS011;6658;53.080;7.428;2022-08-18T12:24:28;1.63;;;1.03;;
13185;SDS011;6658;53.080;7.428;2022-08-18T12:26:56;2.70;;;1.47;;
13185;SDS011;6658;53.080;7.428;2022-08-18T12:29:23;2.67;;;1.30;;
13185;SDS011;6658;53.080;7.428;2022-08-18T12:31:51;3.70;;;1.37;;
13185;SDS011;6658;53.080;7.428;2022-08-18T12:34:19;2.20;;;1.20;;
13185;SDS011;6658;53.080;7.428;2022-08-18T12:36:51;1.40;;;1.30;;
13185;SDS011;6658;53.080;7.428;2022-08-18T12:39:19;2.17;;;1.00;;
13185;SDS011;6658;53.080;7.428;2022-08-18T12:41:45;1.17;;;1.03;;
13185;SDS011;6658;53.080;7.428;2022-08-18T12:44:11;2.90;;;1.27;;
13185;SDS011;6658;53.080;7.428;2022-08-18T12:46:36;1.77;;;1.47;;
13185;SDS011;6658;53.080;7.428;2022-08-18T12:49:03;2.97;;;1.10;;
13185;SDS011;6658;53.080;7.428;2022-08-18T12:51:30;4.80;;;1.43;;
13185;SDS011;6658;53.080;7.428;2022-08-18T12:53:56;3.87;;;1.47;;
13185;SDS011;6658;53.080;7.428;2022-08-18T12:56:23;2.23;;;1.20;;
13185;SDS011;6658;53.080;7.428;2022-08-18T12:58:51;2.50;;;1.50;;
13185;SDS011;6658;53.080;7.428;2022-08-18T13:01:17;2.13;;;1.43;;
13185;SDS011;6658;53.080;7.428;2022-08-18T13:03:44;3.30;;;1.70;;
13185;SDS011;6658;53.080;7.428;2022-08-18T13:06:11;2.77;;;1.37;;
13185;SDS011;6658;53.080;7.428;2022-08-18T13:08:37;1.53;;;1.37;;
13185;SDS011;6658;53.080;7.428;2022-08-18T13:11:03;2.97;;;1.43;;
13185;SDS011;6658;53.080;7.428;2022-08-18T13:13:34;1.43;;;1.20;;
13185;SDS011;6658;53.080;7.428;2022-08-18T13:16:00;2.70;;;1.23;;
13185;SDS011;6658;53.080;7.428;2022-08-18T13:18:26;2.17;;;1.03;;
13185;SDS011;6658;53.080;7.428;2022-08-18T13:20:53;2.07;;;1.40;;
13185;SDS011;6658;53.080;7.428;2022-08-18T13:23:18;1.73;;;1.20;;
13185;SDS011;6658;53.080;7.428;2022-08-18T13:25:44;2.23;;;1.30;;
13185;SDS011;6658;53.080;7.428;2022-08-18T13:28:10;2.17;;;1.03;;
13185;SDS011;6658;53.080;7.428;2022-08-18T13:30:35;1.67;;;1.00;;
13185;SDS011;6658;53.080;7.428;2022-08-18T13:33:01;3.07;;;1.17;;
13185;SDS011;6658;53.080;7.428;2022-08-18T13:35:27;2.30;;;1.20;;
13185;SDS011;6658;53.080;7.428;2022-08-18T13:37:53;2.60;;;1.30;;
13185;SDS011;6658;53.080;7.428;2022-08-18T13:40:20;1.70;;;1.00;;
13185;SDS011;6658;53.080;7.428;2022-08-18T13:42:46;1.53;;;1.00;;
13185;SDS011;6658;53.080;7.428;2022-08-18T13:45:14;2.10;;;1.50;;
13185;SDS011;6658;53.080;7.428;2022-08-18T13:47:42;2.03;;;1.17;;
13185;SDS011;6658;53.080;7.428;2022-08-18T13:50:08;2.17;;;1.07;;
13185;SDS011;6658;53.080;7.428;2022-08-18T13:52:35;1.47;;;1.27;;
13185;SDS011;6658;53.080;7.428;2022-08-18T13:55:03;1.67;;;1.07;;
13185;SDS011;6658;53.080;7.428;2022-08-18T13:57:29;2.77;;;1.30;;
13185;SDS011;6658;53.080;7.428;2022-08-18T13:59:56;1.63;;;1.00;;
13185;SDS011;6658;53.080;7.428;2022-08-18T14:02:22;1.60;;;1.33;;
13185;SDS011;6658;53.080;7.428;2022-08-18T14:04:48;1.40;;;1.10;;
13185;SDS011;6658;53.080;7.428;2022-08-18T14:07:14;2.43;;;1.60;;
13185;SDS011;6658;53.080;7.428;2022-08-18T14:09:41;2.10;;;1.17;;
13185;SDS011;6658;53.080;7.428;2022-08-18T14:12:18;1.90;;;1.30;;
13185;SDS011;6658;53.080;7.428;2022-08-18T14:14:45;2.20;;;1.50;;
13185;SDS011;6658;53.080;7.428;2022-08-18T14:17:10;1.80;;;1.00;;
13185;SDS011;6658;53.080;7.428;2022-08-18T14:19:36;2.27;;;1.30;;
13185;SDS011;6658;53.080;7.428;2022-08-18T14:22:20;2.87;;;1.47;;
13185;SDS011;6658;53.080;7.428;2022-08-18T14:25:04;4.63;;;1.30;;
13185;SDS011;6658;53.080;7.428;2022-08-18T14:27:49;2.43;;;1.20;;
13185;SDS011;6658;53.080;7.428;2022-08-18T14:30:15;3.93;;;1.43;;
13185;SDS011;6658;53.080;7.428;2022-08-18T14:32:42;1.93;;;1.37;;
13185;SDS011;6658;53.080;7.428;2022-08-18T14:35:09;2.27;;;1.67;;
13185;SDS011;6658;53.080;7.428;2022-08-18T14:37:36;3.20;;;1.70;;
13185;SDS011;6658;53.080;7.428;2022-08-18T14:40:03;1.80;;;1.20;;
13185;SDS011;6658;53.080;7.428;2022-08-18T14:42:30;2.17;;;1.30;;
13185;SDS011;6658;53.080;7.428;2022-08-18T14:44:56;1.50;;;1.20;;
13185;SDS011;6658;53.080;7.428;2022-08-18T14:47:22;1.27;;;1.17;;
13185;SDS011;6658;53.080;7.428;2022-08-18T14:49:51;1.77;;;1.20;;
13185;SDS011;6658;53.080;7.428;2022-08-18T14:52:17;1.47;;;1.37;;
13185;SDS011;6658;53.080;7.428;2022-08-18T14:54:43;3.17;;;1.30;;
13185;SDS011;6658;53.080;7.428;2022-08-18T14:57:08;2.17;;;1.70;;
13185;SDS011;6658;53.080;7.428;2022-08-18T14:59:36;2.80;;;1.57;;
13185;SDS011;6658;53.080;7.428;2022-08-18T15:02:03;1.53;;;1.20;;
13185;SDS011;6658;53.080;7.428;2022-08-18T15:04:29;1.80;;;1.30;;
13185;SDS011;6658;53.080;7.428;2022-08-18T15:06:55;2.00;;;1.33;;
13185;SDS011;6658;53.080;7.428;2022-08-18T15:09:20;2.87;;;1.57;;
13185;SDS011;6658;53.080;7.428;2022-08-18T15:11:47;1.63;;;1.30;;
13185;SDS011;6658;53.080;7.428;2022-08-18T15:14:14;1.57;;;1.27;;
13185;SDS011;6658;53.080;7.428;2022-08-18T15:16:41;2.70;;;1.30;;
13185;SDS011;6658;53.080;7.428;2022-08-18T15:19:07;2.57;;;1.57;;
13185;SDS011;6658;53.080;7.428;2022-08-18T15:21:33;2.20;;;1.30;;
13185;SDS011;6658;53.080;7.428;2022-08-18T15:24:17;1.93;;;1.33;;
13185;SDS011;6658;53.080;7.428;2022-08-18T15:27:02;1.90;;;1.33;;
13185;SDS011;6658;53.080;7.428;2022-08-18T15:29:28;2.27;;;1.53;;
13185;SDS011;6658;53.080;7.428;2022-08-18T15:31:54;1.30;;;1.20;;
13185;SDS011;6658;53.080;7.428;2022-08-18T15:34:23;1.57;;;1.47;;
13185;SDS011;6658;53.080;7.428;2022-08-18T15:36:49;1.70;;;1.30;;
13185;SDS011;6658;53.080;7.428;2022-08-18T15:39:17;1.83;;;1.37;;
13185;SDS011;6658;53.080;7.428;2022-08-18T15:41:43;1.67;;;1.03;;
13185;SDS011;6658;53.080;7.428;2022-08-18T15:44:13;1.63;;;1.47;;
13185;SDS011;6658;53.080;7.428;2022-08-18T15:46:44;1.30;;;1.20;;
13185;SDS011;6658;53.080;7.428;2022-08-18T15:49:10;2.27;;;1.50;;
13185;SDS011;6658;53.080;7.428;2022-08-18T15:51:36;1.47;;;1.33;;
13185;SDS011;6658;53.080;7.428;2022-08-18T15:54:03;2.40;;;1.80;;
13185;SDS011;6658;53.080;7.428;2022-08-18T15:56:30;1.53;;;1.40;;
13185;SDS011;6658;53.080;7.428;2022-08-18T15:58:56;1.50;;;1.40;;
13185;SDS011;6658;53.080;7.428;2022-08-18T16:01:23;1.47;;;1.37;;
13185;SDS011;6658;53.080;7.428;2022-08-18T16:03:49;1.50;;;1.40;;
13185;SDS011;6658;53.080;7.428;2022-08-18T16:06:19;2.20;;;1.27;;
13185;SDS011;6658;53.080;7.428;2022-08-18T16:08:48;3.83;;;1.60;;
13185;SDS011;6658;53.080;7.428;2022-08-18T16:11:14;1.83;;;1.43;;
13185;SDS011;6658;53.080;7.428;2022-08-18T16:13:43;2.50;;;1.60;;
13185;SDS011;6658;53.080;7.428;2022-08-18T16:16:10;3.23;;;1.50;;
13185;SDS011;6658;53.080;7.428;2022-08-18T16:18:37;1.60;;;1.33;;
13185;SDS011;6658;53.080;7.428;2022-08-18T16:21:07;1.80;;;1.70;;
13185;SDS011;6658;53.080;7.428;2022-08-18T16:23:46;1.50;;;1.40;;
13185;SDS011;6658;53.080;7.428;2022-08-18T16:26:14;1.23;;;1.13;;
13185;SDS011;6658;53.080;7.428;2022-08-18T16:28:41;1.20;;;1.10;;
13185;SDS011;6658;53.080;7.428;2022-08-18T16:31:09;1.30;;;1.20;;
13185;SDS011;6658;53.080;7.428;2022-08-18T16:33:39;1.97;;;1.60;;
13185;SDS011;6658;53.080;7.428;2022-08-18T16:36:09;1.77;;;1.33;;
13185;SDS011;6658;53.080;7.428;2022-08-18T16:38:38;1.87;;;1.50;;
13185;SDS011;6658;53.080;7.428;2022-08-18T16:41:08;1.53;;;1.27;;
13185;SDS011;6658;53.080;7.428;2022-08-18T16:43:37;1.50;;;1.40;;
13185;SDS011;6658;53.080;7.428;2022-08-18T16:46:03;1.63;;;1.13;;
13185;SDS011;6658;53.080;7.428;2022-08-18T16:48:34;1.57;;;1.47;;
13185;SDS011;6658;53.080;7.428;2022-08-18T16:51:00;2.27;;;1.43;;
13185;SDS011;6658;53.080;7.428;2022-08-18T16:53:25;2.03;;;1.37;;
13185;SDS011;6658;53.080;7.428;2022-08-18T16:55:51;1.40;;;1.30;;
13185;SDS011;6658;53.080;7.428;2022-08-18T16:58:17;2.77;;;1.30;;
13185;SDS011;6658;53.080;7.428;2022-08-18T17:01:01;1.30;;;1.20;;
13185;SDS011;6658;53.080;7.428;2022-08-18T17:03:45;1.77;;;1.50;;
13185;SDS011;6658;53.080;7.428;2022-08-18T17:06:30;1.23;;;1.10;;
13185;SDS011;6658;53.080;7.428;2022-08-18T17:08:56;1.73;;;1.10;;
13185;SDS011;6658;53.080;7.428;2022-08-18T17:11:23;1.30;;;1.20;;
13185;SDS011;6658;53.080;7.428;2022-08-18T17:13:54;1.50;;;1.40;;
13185;SDS011;6658;53.080;7.428;2022-08-18T17:16:22;1.17;;;1.07;;
13185;SDS011;6658;53.080;7.428;2022-08-18T17:18:49;1.77;;;1.00;;
13185;SDS011;6658;53.080;7.428;2022-08-18T17:21:17;1.20;;;1.10;;
13185;SDS011;6658;53.080;7.428;2022-08-18T17:23:46;1.47;;;1.20;;
13185;SDS011;6658;53.080;7.428;2022-08-18T17:26:19;1.17;;;1.07;;
13185;SDS011;6658;53.080;7.428;2022-08-18T17:29:03;1.00;;;0.90;;
13185;SDS011;6658;53.080;7.428;2022-08-18T17:31:34;1.20;;;1.10;;
13185;SDS011;6658;53.080;7.428;2022-08-18T17:34:08;1.23;;;1.13;;
13185;SDS011;6658;53.080;7.428;2022-08-18T17:36:39;1.40;;;1.20;;
13185;SDS011;6658;53.080;7.428;2022-08-18T17:39:14;1.30;;;1.20;;
13185;SDS011;6658;53.080;7.428;2022-08-18T17:41:41;1.47;;;1.00;;
13185;SDS011;6658;53.080;7.428;2022-08-18T17:44:26;1.63;;;1.53;;
13185;SDS011;6658;53.080;7.428;2022-08-18T17:46:51;1.30;;;1.20;;
13185;SDS011;6658;53.080;7.428;2022-08-18T17:52:24;1.20;;;1.10;;